createdAt,value
2022-07-28T00:00:04.383Z,15.4
2022-07-28T00:01:04.004Z,15.4
2022-07-28T00:02:04.263Z,15.4
2022-07-28T00:03:04.205Z,15.3
2022-07-28T00:04:08.543Z,15.2
2022-07-28T00:05:06.338Z,15.4
2022-07-28T00:06:06.137Z,15.2
2022-07-28T00:07:05.269Z,15
2022-07-28T00:08:04.871Z,15
2022-07-28T00:09:06.986Z,14.9
2022-07-28T00:10:04.561Z,14.9
2022-07-28T00:11:07.956Z,15
2022-07-28T00:12:06.120Z,15.1
2022-07-28T00:13:06.735Z,15.2
2022-07-28T00:14:11.352Z,15
2022-07-28T00:15:06.424Z,15
2022-07-28T00:16:04.953Z,15
2022-07-28T00:17:05.895Z,15
2022-07-28T00:18:06.916Z,15.1
2022-07-28T00:19:06.415Z,15.1
2022-07-28T00:20:05.344Z,15.1
2022-07-28T00:21:05.865Z,15.2
2022-07-28T00:22:07.084Z,15.3
2022-07-28T00:23:05.870Z,15.3
2022-07-28T00:24:05.180Z,15.2
2022-07-28T00:25:06.218Z,15.1
2022-07-28T00:26:05.373Z,15.2
2022-07-28T00:27:07.809Z,15.2
2022-07-28T00:28:06.917Z,15.2
2022-07-28T00:29:11.289Z,15.2
2022-07-28T00:30:05.410Z,15.2
2022-07-28T00:31:09.780Z,15.3
2022-07-28T00:32:06.039Z,15.2
2022-07-28T00:33:07.187Z,15
2022-07-28T00:34:08.078Z,15
2022-07-28T00:35:06.850Z,14.9
2022-07-28T00:36:06.702Z,14.9
2022-07-28T00:37:06.640Z,15
2022-07-28T00:38:11.402Z,15.1
2022-07-28T00:39:05.770Z,15.1
2022-07-28T00:40:05.786Z,14.9
2022-07-28T00:41:09.336Z,14.9
2022-07-28T00:42:06.522Z,14.9
2022-07-28T00:43:07.106Z,14.8
2022-07-28T00:44:07.566Z,14.9
2022-07-28T00:45:07.448Z,14.9
2022-07-28T00:46:06.311Z,14.8
2022-07-28T00:47:08.015Z,14.9
2022-07-28T00:48:06.298Z,14.9
2022-07-28T00:49:08.500Z,14.9
2022-07-28T00:50:08.235Z,15
2022-07-28T00:51:08.256Z,15
2022-07-28T00:52:06.247Z,15
2022-07-28T00:53:08.768Z,15.2
2022-07-28T00:54:06.249Z,15.3
2022-07-28T00:55:06.373Z,15.3
2022-07-28T00:57:48.067Z,15.2
2022-07-28T00:58:06.724Z,15.2
2022-07-28T00:59:06.643Z,15.1
2022-07-28T01:00:09.168Z,15.1
2022-07-28T01:01:08.475Z,15.2
2022-07-28T01:02:06.914Z,15
2022-07-28T01:03:08.890Z,15
2022-07-28T01:04:06.967Z,15.1
2022-07-28T01:05:09.186Z,15.2
2022-07-28T01:06:07.120Z,15.2
2022-07-28T01:07:08.764Z,15.2
2022-07-28T01:08:09.016Z,15.1
2022-07-28T01:09:07.276Z,14.8
2022-07-28T01:10:08.578Z,14.9
2022-07-28T01:11:07.564Z,14.9
2022-07-28T01:12:07.452Z,14.9
2022-07-28T01:13:07.621Z,14.8
2022-07-28T01:14:07.493Z,14.6
2022-07-28T01:15:07.568Z,14.6
2022-07-28T01:16:07.675Z,14.7
2022-07-28T01:17:07.798Z,14.6
2022-07-28T01:18:07.707Z,14.5
2022-07-28T01:19:13.153Z,14.7
2022-07-28T01:20:08.012Z,14.7
2022-07-28T01:21:08.166Z,14.7
2022-07-28T01:22:07.919Z,14.7
2022-07-28T01:23:09.390Z,14.8
2022-07-28T01:24:08.754Z,14.8
2022-07-28T01:25:08.045Z,14.7
2022-07-28T01:26:08.112Z,14.5
2022-07-28T01:27:11.670Z,14.5
2022-07-28T01:28:09.482Z,14.6
2022-07-28T01:29:08.306Z,14.8
2022-07-28T01:30:09.847Z,14.9
2022-07-28T01:31:08.974Z,15
2022-07-28T01:32:08.511Z,15
2022-07-28T01:33:10.686Z,14.9
2022-07-28T01:34:09.529Z,14.5
2022-07-28T01:35:09.865Z,14.6
2022-07-28T01:36:09.266Z,14.5
2022-07-28T01:37:10.554Z,14.5
2022-07-28T01:38:08.774Z,14.7
2022-07-28T01:39:09.693Z,14.4
2022-07-28T01:40:08.702Z,14.2
2022-07-28T01:41:08.751Z,14.4
2022-07-28T01:42:08.805Z,14.4
2022-07-28T01:43:08.843Z,14.6
2022-07-28T01:44:10.975Z,14.7
2022-07-28T01:45:09.150Z,14.7
2022-07-28T01:46:08.994Z,14.6
2022-07-28T01:47:08.969Z,14.7
2022-07-28T01:48:10.082Z,14.8
2022-07-28T01:49:09.449Z,14.7
2022-07-28T01:50:09.353Z,14.6
2022-07-28T01:51:10.153Z,14.4
2022-07-28T01:52:09.249Z,14.2
2022-07-28T01:53:10.861Z,14.2
2022-07-28T01:54:09.200Z,14.3
2022-07-28T01:55:11.446Z,14.3
2022-07-28T01:56:09.571Z,14.3
2022-07-28T01:57:09.347Z,14.2
2022-07-28T01:58:09.785Z,14.2
2022-07-28T01:59:09.500Z,14
2022-07-28T02:00:09.392Z,14
2022-07-28T02:01:09.483Z,14.1
2022-07-28T02:02:12.108Z,14.2
2022-07-28T02:03:09.521Z,14.2
2022-07-28T02:04:09.596Z,14.4
2022-07-28T02:05:10.466Z,14.2
2022-07-28T02:06:09.611Z,14
2022-07-28T02:07:10.141Z,14
2022-07-28T02:08:11.481Z,14.1
2022-07-28T02:09:09.858Z,14.3
2022-07-28T02:10:12.269Z,14.3
2022-07-28T02:11:11.846Z,14.4
2022-07-28T02:12:10.214Z,14.2
2022-07-28T02:13:10.383Z,14.2
2022-07-28T02:14:10.299Z,14.3
2022-07-28T02:15:12.414Z,14.4
2022-07-28T02:16:10.430Z,14.4
2022-07-28T02:17:10.456Z,14.3
2022-07-28T02:18:10.540Z,14
2022-07-28T02:19:11.315Z,14.1
2022-07-28T02:20:10.745Z,14
2022-07-28T02:21:14.518Z,13.9
2022-07-28T02:22:12.332Z,14
2022-07-28T02:23:10.875Z,13.9
2022-07-28T02:24:11.992Z,13.9
2022-07-28T02:25:11.208Z,14
2022-07-28T02:26:12.967Z,13.8
2022-07-28T02:27:11.007Z,13.7
2022-07-28T02:28:12.017Z,13.9
2022-07-28T02:29:22.484Z,13.9
2022-07-28T02:30:11.190Z,14
2022-07-28T02:31:13.477Z,14
2022-07-28T02:32:23.974Z,13.9
2022-07-28T02:33:11.345Z,13.8
2022-07-28T02:34:13.162Z,13.7
2022-07-28T02:35:11.404Z,13.8
2022-07-28T02:36:12.261Z,13.9
2022-07-28T02:37:11.519Z,13.8
2022-07-28T02:38:11.564Z,13.7
2022-07-28T02:39:12.798Z,13.7
2022-07-28T02:40:11.875Z,13.9
2022-07-28T02:41:15.048Z,13.9
2022-07-28T02:42:13.295Z,13.7
2022-07-28T02:43:12.023Z,13.8
2022-07-28T02:44:12.060Z,13.9
2022-07-28T02:45:13.702Z,13.9
2022-07-28T02:46:13.166Z,13.9
2022-07-28T02:47:11.951Z,13.7
2022-07-28T02:48:11.970Z,13.7
2022-07-28T02:49:11.998Z,13.8
2022-07-28T02:50:12.146Z,14
2022-07-28T02:51:12.730Z,13.7
2022-07-28T02:52:13.277Z,13.8
2022-07-28T02:53:15.371Z,13.8
2022-07-28T02:54:14.442Z,13.7
2022-07-28T02:55:12.449Z,13.7
2022-07-28T02:56:12.221Z,13.5
2022-07-28T02:57:14.137Z,13.6
2022-07-28T02:58:12.317Z,13.4
2022-07-28T02:59:12.317Z,13.4
2022-07-28T03:00:12.342Z,13.5
2022-07-28T03:01:14.895Z,13.8
2022-07-28T03:02:12.428Z,13.9
2022-07-28T03:03:12.490Z,13.9
2022-07-28T03:04:14.362Z,13.8
2022-07-28T03:05:12.554Z,13.6
2022-07-28T03:06:12.714Z,13.6
2022-07-28T03:07:14.614Z,13.5
2022-07-28T03:08:12.634Z,13.4
2022-07-28T03:09:14.348Z,13.7
2022-07-28T03:10:12.678Z,13.5
2022-07-28T03:11:14.012Z,13.7
2022-07-28T03:12:13.663Z,13.6
2022-07-28T03:13:12.776Z,13.7
2022-07-28T03:14:13.059Z,13.7
2022-07-28T03:15:14.333Z,13.4
2022-07-28T03:16:13.501Z,13.4
2022-07-28T03:17:15.200Z,13.6
2022-07-28T03:18:16.191Z,13.5
2022-07-28T03:19:13.226Z,13.8
2022-07-28T03:20:13.150Z,13.8
2022-07-28T03:21:13.442Z,13.8
2022-07-28T03:22:16.228Z,13.7
2022-07-28T03:23:14.985Z,13.7
2022-07-28T03:24:15.337Z,13.7
2022-07-28T03:25:14.384Z,13.7
2022-07-28T03:26:13.588Z,13.6
2022-07-28T03:27:16.199Z,13.6
2022-07-28T03:28:13.736Z,13.6
2022-07-28T03:29:15.487Z,13.6
2022-07-28T03:30:14.775Z,13.6
2022-07-28T03:31:14.002Z,13.6
2022-07-28T03:32:16.653Z,13.6
2022-07-28T03:33:14.012Z,13.5
2022-07-28T03:34:16.400Z,13.6
2022-07-28T03:35:15.510Z,13.5
2022-07-28T03:36:14.962Z,13.4
2022-07-28T03:37:14.196Z,13.6
2022-07-28T03:38:14.305Z,13.6
2022-07-28T03:39:14.649Z,13.7
2022-07-28T03:40:14.388Z,13.7
2022-07-28T03:41:14.399Z,13.5
2022-07-28T03:42:14.997Z,13.5
2022-07-28T03:43:14.565Z,13.5
2022-07-28T03:44:14.937Z,13.5
2022-07-28T03:45:16.093Z,13.6
2022-07-28T03:46:14.692Z,13.5
2022-07-28T03:47:19.518Z,13.5
2022-07-28T03:48:15.075Z,13.6
2022-07-28T03:49:15.008Z,13.6
2022-07-28T03:50:14.892Z,13.6
2022-07-28T03:51:15.003Z,13.6
2022-07-28T03:52:16.169Z,13.7
2022-07-28T03:53:15.371Z,13.6
2022-07-28T03:54:15.382Z,13.5
2022-07-28T03:55:15.741Z,13.6
2022-07-28T03:56:16.077Z,13.5
2022-07-28T03:57:15.558Z,13.4
2022-07-28T03:58:15.264Z,13.5
2022-07-28T03:59:15.317Z,13.3
2022-07-28T04:00:15.605Z,13.2
2022-07-28T04:01:15.415Z,13
2022-07-28T04:02:15.656Z,13.2
2022-07-28T04:03:22.153Z,13.3
2022-07-28T04:04:16.268Z,13.2
2022-07-28T04:05:15.620Z,13.3
2022-07-28T04:06:15.789Z,13.4
2022-07-28T04:07:15.861Z,13.3
2022-07-28T04:08:17.776Z,13.1
2022-07-28T04:09:19.872Z,13.1
2022-07-28T04:10:15.704Z,13.2
2022-07-28T04:11:17.679Z,13.4
2022-07-28T04:12:15.895Z,13.4
2022-07-28T04:13:15.844Z,13.4
2022-07-28T04:14:16.972Z,13.3
2022-07-28T04:15:18.698Z,13.1
2022-07-28T04:16:17.669Z,13.4
2022-07-28T04:17:15.958Z,13.6
2022-07-28T04:18:18.603Z,13.5
2022-07-28T04:19:16.099Z,13.5
2022-07-28T04:20:16.385Z,13.6
2022-07-28T04:21:16.065Z,13.7
2022-07-28T04:22:16.088Z,13.6
2022-07-28T04:23:16.148Z,13.4
2022-07-28T04:24:16.774Z,13.5
2022-07-28T04:25:16.212Z,13.5
2022-07-28T04:26:16.256Z,13.4
2022-07-28T04:27:16.567Z,13.5
2022-07-28T04:28:16.580Z,13.4
2022-07-28T04:29:22.482Z,13.3
2022-07-28T04:31:34.714Z,13.3
2022-07-28T04:32:16.607Z,13.3
2022-07-28T04:33:17.907Z,13.4
2022-07-28T04:34:19.885Z,13.4
2022-07-28T04:35:17.604Z,13.4
2022-07-28T04:36:17.449Z,13.3
2022-07-28T04:37:16.943Z,13.3
2022-07-28T04:38:18.777Z,13.4
2022-07-28T04:39:17.178Z,13.4
2022-07-28T04:40:17.631Z,13.3
2022-07-28T04:41:17.315Z,13.3
2022-07-28T04:42:17.192Z,13.3
2022-07-28T04:43:22.879Z,13.3
2022-07-28T04:44:22.312Z,13.3
2022-07-28T04:45:17.626Z,13.4
2022-07-28T04:46:17.701Z,13.3
2022-07-28T04:47:17.644Z,13.4
2022-07-28T04:48:19.358Z,13.3
2022-07-28T04:49:17.828Z,13.4
2022-07-28T04:50:19.268Z,13.6
2022-07-28T04:51:18.332Z,13.5
2022-07-28T04:52:17.716Z,13.4
2022-07-28T04:53:18.685Z,13.6
2022-07-28T04:54:19.986Z,13.5
2022-07-28T04:55:20.993Z,13.5
2022-07-28T04:56:18.171Z,13.6
2022-07-28T04:57:18.183Z,13.6
2022-07-28T04:58:18.329Z,13.4
2022-07-28T04:59:23.098Z,13.4
2022-07-28T05:00:18.140Z,13.5
2022-07-28T05:01:20.607Z,13.4
2022-07-28T05:02:18.346Z,13.4
2022-07-28T05:03:18.403Z,13.5
2022-07-28T05:04:22.462Z,13.6
2022-07-28T05:05:30.749Z,13.6
2022-07-28T05:06:21.040Z,13.5
2022-07-28T05:07:23.007Z,13.4
2022-07-28T05:08:18.662Z,13.4
2022-07-28T05:09:19.013Z,13.5
2022-07-28T05:10:26.970Z,13.5
2022-07-28T05:11:18.560Z,13.4
2022-07-28T05:12:19.073Z,13.6
2022-07-28T05:13:19.012Z,13.6
2022-07-28T05:14:19.651Z,13.6
2022-07-28T05:15:18.701Z,13.7
2022-07-28T05:16:19.209Z,13.8
2022-07-28T05:17:20.905Z,13.8
2022-07-28T05:18:19.574Z,13.8
2022-07-28T05:19:21.328Z,13.9
2022-07-28T05:20:18.865Z,14
2022-07-28T05:21:22.351Z,13.9
2022-07-28T05:22:19.948Z,13.8
2022-07-28T05:23:19.203Z,13.9
2022-07-28T05:24:19.200Z,13.9
2022-07-28T05:25:20.415Z,13.9
2022-07-28T05:26:19.103Z,14
2022-07-28T05:27:19.315Z,14.2
2022-07-28T05:28:20.544Z,14.4
2022-07-28T05:29:19.278Z,14.4
2022-07-28T05:30:19.243Z,14.4
2022-07-28T05:31:23.100Z,14.5
2022-07-28T05:32:24.365Z,14.5
2022-07-28T05:33:19.355Z,14.7
2022-07-28T05:34:19.398Z,14.8
2022-07-28T05:35:19.843Z,14.8
2022-07-28T05:36:22.575Z,14.8
2022-07-28T05:37:19.479Z,14.8
2022-07-28T05:38:21.703Z,14.8
2022-07-28T05:39:24.599Z,14.8
2022-07-28T05:40:22.923Z,14.7
2022-07-28T05:41:19.635Z,14.6
2022-07-28T05:42:21.903Z,14.5
2022-07-28T05:43:21.041Z,14.5
2022-07-28T05:45:05.001Z,14.6
2022-07-28T05:45:20.328Z,14.5
2022-07-28T05:46:22.140Z,14.3
2022-07-28T05:47:20.076Z,14.3
2022-07-28T05:48:23.961Z,14.4
2022-07-28T05:49:20.586Z,14.4
2022-07-28T05:50:22.323Z,14.3
2022-07-28T05:51:27.394Z,14.3
2022-07-28T05:52:20.964Z,14.3
2022-07-28T05:53:25.739Z,14.3
2022-07-28T05:54:23.408Z,14.3
2022-07-28T05:55:25.596Z,14.1
2022-07-28T05:56:21.957Z,14.3
2022-07-28T05:57:20.800Z,14.3
2022-07-28T05:58:20.886Z,14.3
2022-07-28T05:59:20.820Z,14.5
2022-07-28T06:00:25.006Z,14.7
2022-07-28T06:01:21.722Z,14.7
2022-07-28T06:02:21.358Z,14.7
2022-07-28T06:03:24.088Z,14.8
2022-07-28T06:04:26.476Z,14.8
2022-07-28T06:05:21.159Z,14.8
2022-07-28T06:06:21.632Z,14.7
2022-07-28T06:07:21.196Z,14.7
2022-07-28T06:08:21.536Z,14.8
2022-07-28T06:09:21.374Z,14.8
2022-07-28T06:10:21.544Z,14.9
2022-07-28T06:11:23.270Z,14.9
2022-07-28T06:12:21.465Z,15
2022-07-28T06:13:45.275Z,15
2022-07-28T06:14:23.765Z,15
2022-07-28T06:15:21.783Z,15.1
2022-07-28T06:16:22.370Z,15.1
2022-07-28T06:17:21.731Z,15.1
2022-07-28T06:18:21.756Z,15.1
2022-07-28T06:19:26.780Z,15.2
2022-07-28T06:20:21.839Z,15.3
2022-07-28T06:21:23.108Z,15.4
2022-07-28T06:22:21.989Z,15.3
2022-07-28T06:23:21.933Z,15.4
2022-07-28T06:24:23.170Z,15.3
2022-07-28T06:25:21.997Z,15.4
2022-07-28T06:26:24.155Z,15.3
2022-07-28T06:27:27.124Z,15.4
2022-07-28T06:28:25.623Z,15.4
2022-07-28T06:29:27.207Z,15.5
2022-07-28T06:30:30.121Z,15.6
2022-07-28T06:31:27.993Z,15.6
2022-07-28T06:32:22.190Z,15.7
2022-07-28T06:33:24.222Z,15.7
2022-07-28T06:34:23.988Z,15.7
2022-07-28T06:35:27.557Z,15.7
2022-07-28T06:36:24.575Z,15.6
2022-07-28T06:37:24.231Z,15.7
2022-07-28T06:38:23.866Z,15.9
2022-07-28T06:39:22.702Z,16
2022-07-28T06:40:22.478Z,15.8
2022-07-28T06:41:24.657Z,15.9
2022-07-28T06:42:22.562Z,16
2022-07-28T06:43:22.623Z,16.1
2022-07-28T06:44:23.619Z,16.2
2022-07-28T06:45:27.659Z,16.3
2022-07-28T06:46:22.702Z,16.4
2022-07-28T06:47:22.699Z,16.5
2022-07-28T06:48:28.714Z,16.6
2022-07-28T06:49:25.509Z,16.6
2022-07-28T06:50:24.613Z,16.7
2022-07-28T06:51:24.516Z,16.7
2022-07-28T06:52:24.985Z,16.5
2022-07-28T06:53:22.997Z,16.3
2022-07-28T06:54:23.234Z,16.2
2022-07-28T06:55:24.926Z,16.2
2022-07-28T06:56:27.537Z,16.2
2022-07-28T06:57:24.356Z,16.1
2022-07-28T06:58:23.624Z,16.2
2022-07-28T06:59:23.435Z,16.1
2022-07-28T07:00:23.515Z,16.1
2022-07-28T07:01:26.745Z,16.2
2022-07-28T07:02:27.754Z,16.4
2022-07-28T07:03:27.136Z,16.4
2022-07-28T07:04:25.469Z,16.6
2022-07-28T07:05:23.800Z,16.7
2022-07-28T07:06:25.819Z,16.9
2022-07-28T07:07:26.503Z,16.9
2022-07-28T07:08:26.022Z,17
2022-07-28T07:09:25.740Z,16.8
2022-07-28T07:10:24.125Z,16.8
2022-07-28T07:11:31.066Z,17
2022-07-28T07:12:24.435Z,17
2022-07-28T07:13:24.254Z,17.1
2022-07-28T07:14:24.603Z,17.4
2022-07-28T07:15:24.383Z,17.5
2022-07-28T07:16:24.476Z,17.5
2022-07-28T07:17:24.867Z,17.4
2022-07-28T07:18:25.567Z,17.2
2022-07-28T07:19:24.565Z,17.4
2022-07-28T07:20:26.185Z,17.5
2022-07-28T07:21:26.748Z,17.5
2022-07-28T07:22:25.017Z,17.7
2022-07-28T07:23:27.110Z,17.8
2022-07-28T07:24:26.231Z,17.9
2022-07-28T07:25:27.366Z,18
2022-07-28T07:26:27.940Z,18
2022-07-28T07:27:24.985Z,18.1
2022-07-28T07:28:26.288Z,18.1
2022-07-28T07:29:25.485Z,18.2
2022-07-28T07:30:25.104Z,18.1
2022-07-28T07:31:29.613Z,18.1
2022-07-28T07:32:25.095Z,18.3
2022-07-28T07:33:25.347Z,18.3
2022-07-28T07:34:25.952Z,18.4
2022-07-28T07:35:25.873Z,18.4
2022-07-28T07:36:26.300Z,18.3
2022-07-28T07:37:25.640Z,18.3
2022-07-28T07:38:28.885Z,18.5
2022-07-28T07:39:26.488Z,18.4
2022-07-28T07:40:26.012Z,18.3
2022-07-28T07:41:28.470Z,18.5
2022-07-28T07:42:25.464Z,18.7
2022-07-28T07:43:28.562Z,18.4
2022-07-28T07:44:25.547Z,18.5
2022-07-28T07:45:25.556Z,18.7
2022-07-28T07:46:25.848Z,18.7
2022-07-28T07:47:26.025Z,18.7
2022-07-28T07:48:27.941Z,18.7
2022-07-28T07:49:42.273Z,18.9
2022-07-28T07:50:25.763Z,19
2022-07-28T07:51:27.882Z,19.1
2022-07-28T07:52:27.370Z,19.3
2022-07-28T07:53:26.389Z,19.5
2022-07-28T07:54:25.895Z,19.5
2022-07-28T07:55:27.985Z,19.4
2022-07-28T07:56:27.798Z,19.4
2022-07-28T07:57:26.454Z,19.4
2022-07-28T07:58:26.525Z,19.5
2022-07-28T07:59:36.116Z,19.5
2022-07-28T08:00:29.559Z,19.4
2022-07-28T08:01:40.391Z,19.4
2022-07-28T08:02:26.998Z,19.1
2022-07-28T08:03:31.224Z,19.2
2022-07-28T08:08:08.196Z,19.6
2022-07-28T08:08:48.533Z,19.7
2022-07-28T08:09:49.279Z,19.7
2022-07-28T08:10:43.653Z,19.8
2022-07-28T08:11:42.166Z,19.9
2022-07-28T08:14:12.495Z,19.8
2022-07-28T08:16:10.239Z,19.7
2022-07-28T08:16:31.102Z,19.9
2022-07-28T08:17:27.282Z,20.1
2022-07-28T08:18:32.099Z,20
2022-07-28T08:19:32.582Z,20
2022-07-28T08:20:33.530Z,20.1
2022-07-28T08:21:38.583Z,20.3
2022-07-28T08:22:29.530Z,20.5
2022-07-28T08:23:27.595Z,20.5
2022-07-28T08:24:32.489Z,20.5
2022-07-28T08:25:27.803Z,20.3
2022-07-28T08:26:40.893Z,20.2
2022-07-28T08:27:30.839Z,20.3
2022-07-28T08:28:27.878Z,20.5
2022-07-28T08:29:28.098Z,20.7
2022-07-28T08:30:32.276Z,20.7
2022-07-28T08:32:16.388Z,20.7
2022-07-28T08:33:00.074Z,20.9
2022-07-28T08:33:29.858Z,20.7
2022-07-28T08:34:31.434Z,20.7
2022-07-28T08:35:33.353Z,20.9
2022-07-28T08:36:28.038Z,21.1
2022-07-28T08:37:28.906Z,21.1
2022-07-28T08:38:34.053Z,20.9
2022-07-28T08:39:29.962Z,20.3
2022-07-28T08:40:29.523Z,20.6
2022-07-28T08:41:41.734Z,20.9
2022-07-28T08:42:29.449Z,21.1
2022-07-28T08:43:30.449Z,21.3
2022-07-28T08:44:35.921Z,21.2
2022-07-28T08:45:28.418Z,21.2
2022-07-28T08:46:36.624Z,21.3
2022-07-28T08:47:40.338Z,21.2
2022-07-28T08:48:34.232Z,21.3
2022-07-28T08:49:30.939Z,21.5
2022-07-28T08:50:54.530Z,21.2
2022-07-28T08:51:44.689Z,21.3
2022-07-28T08:52:39.159Z,21.6
2022-07-28T08:53:28.977Z,21.9
2022-07-28T08:54:41.097Z,21.9
2022-07-28T08:55:31.426Z,21.7
2022-07-28T08:56:54.338Z,21.8
2022-07-28T08:57:30.424Z,21.9
2022-07-28T08:58:55.537Z,22.1
2022-07-28T08:59:38.264Z,22.2
2022-07-28T09:00:53.930Z,22.5
2022-07-28T09:01:44.233Z,22.5
2022-07-28T09:03:16.452Z,22.3
2022-07-28T09:04:02.744Z,22
2022-07-28T09:04:29.393Z,21.8
2022-07-28T09:05:45.344Z,21.8
2022-07-28T09:06:40.223Z,21.7
2022-07-28T09:07:29.225Z,21.7
2022-07-28T09:09:06.818Z,22.1
2022-07-28T09:10:02.364Z,22.3
2022-07-28T09:10:40.510Z,22.3
2022-07-28T09:13:20.062Z,22.3
2022-07-28T09:13:31.295Z,22
2022-07-28T09:14:40.956Z,22.5
2022-07-28T09:14:47.584Z,22.4
2022-07-28T09:20:10.984Z,22.4
2022-07-28T09:20:10.990Z,22.5
2022-07-28T09:20:31.683Z,22.5
2022-07-28T09:21:31.043Z,22.4
2022-07-28T09:22:30.063Z,22.3
2022-07-28T09:23:33.862Z,22.2
2022-07-28T09:24:33.347Z,22.3
2022-07-28T09:25:30.225Z,22.5
2022-07-28T09:26:30.742Z,22.6
2022-07-28T09:27:31.966Z,22.6
2022-07-28T09:28:38.573Z,22.7
2022-07-28T09:31:03.174Z,23
2022-07-28T09:31:30.790Z,23.4
2022-07-28T09:32:30.734Z,23.5
2022-07-28T09:33:41.568Z,23.5
2022-07-28T09:34:33.232Z,23.7
2022-07-28T09:35:30.837Z,23.8
2022-07-28T09:36:32.994Z,23.7
2022-07-28T09:37:44.936Z,23.5
2022-07-28T09:38:31.371Z,23.2
2022-07-28T09:39:42.056Z,23.1
2022-07-28T09:40:31.128Z,23
2022-07-28T09:41:31.188Z,22.6
2022-07-28T09:42:31.231Z,22.8
2022-07-28T09:43:31.651Z,23
2022-07-28T09:44:31.583Z,23.2
2022-07-28T09:45:31.409Z,23.4
2022-07-28T09:46:31.965Z,23.3
2022-07-28T09:47:32.265Z,23.3
2022-07-28T09:49:01.518Z,23.8
2022-07-28T09:49:45.916Z,23.7
2022-07-28T09:50:33.930Z,24.1
2022-07-28T09:51:32.120Z,24.1
2022-07-28T09:52:32.509Z,23.9
2022-07-28T09:53:32.268Z,23.7
2022-07-28T09:54:31.917Z,23.6
2022-07-28T09:55:32.535Z,23.8
2022-07-28T09:56:32.270Z,24
2022-07-28T09:57:33.733Z,24.3
2022-07-28T09:58:33.095Z,24.2
2022-07-28T09:59:34.485Z,23.9
2022-07-28T10:00:32.311Z,23.8
2022-07-28T10:01:35.773Z,23.9
2022-07-28T10:02:40.383Z,24.1
2022-07-28T10:03:32.549Z,24.2
2022-07-28T10:04:33.040Z,23.9
2022-07-28T10:05:32.355Z,23.7
2022-07-28T10:06:32.284Z,23.6
2022-07-28T10:07:32.322Z,23.9
2022-07-28T10:08:32.442Z,24.1
2022-07-28T10:09:32.393Z,24.3
2022-07-28T10:10:32.460Z,24.3
2022-07-28T10:11:33.665Z,24.4
2022-07-28T10:12:33.681Z,24.5
2022-07-28T10:13:34.385Z,24.6
2022-07-28T10:14:32.579Z,24.7
2022-07-28T10:15:33.435Z,24.6
2022-07-28T10:16:32.920Z,24.7
2022-07-28T10:17:32.674Z,24.8
2022-07-28T10:18:33.930Z,24.9
2022-07-28T10:19:34.448Z,25
2022-07-28T10:20:33.087Z,24.9
2022-07-28T10:21:35.585Z,25.1
2022-07-28T10:22:42.988Z,25.1
2022-07-28T10:23:35.149Z,25
2022-07-28T10:24:41.930Z,24.8
2022-07-28T10:25:37.958Z,24.5
2022-07-28T10:26:32.967Z,24.9
2022-07-28T10:27:33.034Z,25.5
2022-07-28T10:28:34.090Z,25.4
2022-07-28T10:29:34.393Z,25.2
2022-07-28T10:30:33.337Z,25.2
2022-07-28T10:31:34.778Z,25.1
2022-07-28T10:32:35.041Z,25.2
2022-07-28T10:33:33.616Z,24.9
2022-07-28T10:34:33.737Z,24.8
2022-07-28T10:35:33.828Z,24.8
2022-07-28T10:36:33.893Z,24.4
2022-07-28T10:37:34.214Z,24.6
2022-07-28T10:38:36.389Z,24.7
2022-07-28T10:39:35.216Z,24.9
2022-07-28T10:40:33.965Z,25.3
2022-07-28T10:41:35.748Z,25.4
2022-07-28T10:42:40.617Z,25.3
2022-07-28T10:43:36.040Z,25.3
2022-07-28T10:44:36.357Z,25.3
2022-07-28T10:46:02.887Z,25
2022-07-28T10:46:34.407Z,25.3
2022-07-28T10:47:36.048Z,25.3
2022-07-28T10:48:34.538Z,25.3
2022-07-28T10:49:34.997Z,25.4
2022-07-28T10:50:36.571Z,25.8
2022-07-28T10:51:34.686Z,25.7
2022-07-28T10:52:49.059Z,25.4
2022-07-28T10:53:34.806Z,25.4
2022-07-28T10:54:36.679Z,25.7
2022-07-28T10:55:35.130Z,25.8
2022-07-28T10:56:35.097Z,25.9
2022-07-28T10:57:35.093Z,26
2022-07-28T10:58:35.221Z,26.1
2022-07-28T10:59:35.332Z,25.7
2022-07-28T11:00:52.996Z,25.7
2022-07-28T11:01:49.480Z,25.6
2022-07-28T11:02:35.373Z,25.5
2022-07-28T11:03:38.118Z,25.4
2022-07-28T11:04:36.265Z,25.9
2022-07-28T11:05:37.822Z,25.9
2022-07-28T11:06:36.533Z,25.4
2022-07-28T11:07:35.514Z,25.4
2022-07-28T11:08:38.694Z,25.6
2022-07-28T11:09:36.213Z,25.7
2022-07-28T11:10:35.816Z,25.7
2022-07-28T11:11:35.629Z,25.4
2022-07-28T11:12:35.705Z,25.4
2022-07-28T11:13:37.015Z,25.5
2022-07-28T11:14:37.470Z,25.5
2022-07-28T11:15:40.338Z,25.3
2022-07-28T11:16:36.215Z,25.5
2022-07-28T11:17:36.338Z,25.5
2022-07-28T11:18:35.885Z,26.1
2022-07-28T11:19:38.114Z,25.9
2022-07-28T11:20:37.353Z,25.6
2022-07-28T11:21:39.569Z,25.6
2022-07-28T11:22:38.809Z,25.6
2022-07-28T11:23:39.015Z,25.6
2022-07-28T11:24:38.803Z,26.1
2022-07-28T11:25:36.850Z,26.1
2022-07-28T11:26:36.165Z,25.9
2022-07-28T11:27:36.789Z,25.9
2022-07-28T11:28:36.192Z,25.7
2022-07-28T11:29:36.253Z,25.7
2022-07-28T11:30:36.609Z,25.5
2022-07-28T11:31:36.303Z,25.5
2022-07-28T11:32:43.914Z,25.5
2022-07-28T11:33:39.945Z,25.5
2022-07-28T11:34:39.354Z,25.2
2022-07-28T11:35:37.170Z,25.4
2022-07-28T11:36:36.682Z,25.9
2022-07-28T11:37:38.358Z,26.1
2022-07-28T11:38:38.155Z,26.2
2022-07-28T11:39:42.920Z,26.2
2022-07-28T11:40:38.679Z,26.2
2022-07-28T11:41:37.063Z,26.5
2022-07-28T11:42:36.855Z,26.7
2022-07-28T11:43:38.653Z,26.4
2022-07-28T11:44:39.395Z,26.8
2022-07-28T11:45:37.974Z,26.6
2022-07-28T11:46:38.380Z,26.7
2022-07-28T11:47:37.362Z,26.8
2022-07-28T11:48:37.364Z,26.7
2022-07-28T11:49:37.293Z,26.7
2022-07-28T11:50:37.374Z,27
2022-07-28T11:51:40.373Z,27.1
2022-07-28T11:52:37.524Z,27
2022-07-28T11:53:40.105Z,26.9
2022-07-28T11:54:37.643Z,26.8
2022-07-28T11:55:49.435Z,26.7
2022-07-28T11:56:37.833Z,26.7
2022-07-28T11:57:39.828Z,26.5
2022-07-28T11:58:37.941Z,26.3
2022-07-28T11:59:38.014Z,26.2
2022-07-28T12:00:38.099Z,26
2022-07-28T12:01:41.017Z,26.1
2022-07-28T12:02:39.917Z,26.2
2022-07-28T12:03:49.788Z,26.1
2022-07-28T12:04:40.215Z,26.5
2022-07-28T12:05:41.848Z,26.3
2022-07-28T12:06:39.724Z,26.2
2022-07-28T12:07:40.966Z,26
2022-07-28T12:08:40.413Z,25.8
2022-07-28T12:09:42.389Z,26.3
2022-07-28T12:10:55.494Z,26.1
2022-07-28T12:11:40.100Z,26.7
2022-07-28T12:12:40.587Z,26.8
2022-07-28T12:13:38.900Z,26.7
2022-07-28T12:14:38.975Z,26.6
2022-07-28T12:15:40.425Z,26.2
2022-07-28T12:16:40.921Z,26.1
2022-07-28T12:17:40.561Z,26.2
2022-07-28T12:18:39.251Z,26.3
2022-07-28T12:19:39.302Z,26
2022-07-28T12:20:38.995Z,25.9
2022-07-28T12:21:40.170Z,25.8
2022-07-28T12:22:39.931Z,25.7
2022-07-28T12:23:45.692Z,25.7
2022-07-28T12:24:44.592Z,25.7
2022-07-28T12:25:39.178Z,25.9
2022-07-28T12:26:40.575Z,25.6
2022-07-28T12:27:40.279Z,25.5
2022-07-28T12:28:39.301Z,25.7
2022-07-28T12:29:42.083Z,25.7
2022-07-28T12:30:39.314Z,25.6
2022-07-28T12:31:39.425Z,25.2
2022-07-28T12:32:39.596Z,25.3
2022-07-28T12:33:39.433Z,25.4
2022-07-28T12:34:40.930Z,25.4
2022-07-28T12:35:39.714Z,25.6
2022-07-28T12:36:39.521Z,26.1
2022-07-28T12:37:39.549Z,26.2
2022-07-28T12:38:41.017Z,26.1
2022-07-28T12:39:42.568Z,25.7
2022-07-28T12:40:41.717Z,25.8
2022-07-28T12:41:39.669Z,25.9
2022-07-28T12:42:41.812Z,26.2
2022-07-28T12:43:42.048Z,26.2
2022-07-28T12:44:40.040Z,26.2
2022-07-28T12:45:41.081Z,26
2022-07-28T12:46:40.160Z,25.7
2022-07-28T12:47:39.894Z,25.5
2022-07-28T12:48:41.668Z,25.5
2022-07-28T12:49:42.053Z,25.7
2022-07-28T12:50:41.554Z,26
2022-07-28T12:51:41.056Z,26
2022-07-28T12:52:40.139Z,26.3
2022-07-28T12:53:40.293Z,26.6
2022-07-28T12:54:40.332Z,26.6
2022-07-28T12:55:40.396Z,26.4
2022-07-28T12:56:40.839Z,26
2022-07-28T12:57:44.814Z,25.5
2022-07-28T12:58:40.641Z,25.6
2022-07-28T12:59:40.660Z,25.7
2022-07-28T13:00:40.776Z,25.9
2022-07-28T13:01:40.826Z,26.2
2022-07-28T13:02:41.995Z,26.4
2022-07-28T13:03:41.142Z,26.6
2022-07-28T13:04:41.176Z,26.6
2022-07-28T13:05:41.196Z,26.7
2022-07-28T13:06:41.152Z,27
2022-07-28T13:07:41.535Z,27.3
2022-07-28T13:08:44.207Z,27.3
2022-07-28T13:09:41.961Z,27.2
2022-07-28T13:10:44.609Z,27
2022-07-28T13:11:46.004Z,26.7
2022-07-28T13:12:42.112Z,26.6
2022-07-28T13:13:42.228Z,26.3
2022-07-28T13:14:42.986Z,26.4
2022-07-28T13:15:42.000Z,26.4
2022-07-28T13:16:49.628Z,26.1
2022-07-28T13:17:42.375Z,26.2
2022-07-28T13:18:43.950Z,26.2
2022-07-28T13:19:42.695Z,26.2
2022-07-28T13:20:43.026Z,25.9
2022-07-28T13:21:57.521Z,26.1
2022-07-28T13:22:42.364Z,26.2
2022-07-28T13:23:42.445Z,26.2
2022-07-28T13:24:42.468Z,26
2022-07-28T13:25:42.545Z,25.9
2022-07-28T13:26:44.226Z,26
2022-07-28T13:27:42.649Z,26.2
2022-07-28T13:28:42.649Z,26.3
2022-07-28T13:29:42.669Z,26.2
2022-07-28T13:30:45.042Z,26.2
2022-07-28T13:31:48.437Z,26.1
2022-07-28T13:32:47.792Z,25.9
2022-07-28T13:33:42.795Z,25.7